KAY350 KJFK-EGCC
Flight info
| Callsign | KAY350 |
|---|---|
| Flight time | 5h 45m |
| Altitude | 41000 |
| Route | GREKI DCT JUDDS DCT MARTN DCT CBIRD DCT MIILS N691A NEEKO/M085F400 DCT 54N050W 55N040W 56N030W 56N020W DCT RESNO DCT NETKI/N0493F410 DCT BOFUM Q37 MALUD |
| Aircraft | A359/H-SDE2E3GHIJ3J4J5LM1ORWXY/LB1D1 |
Departure
| Time | 2026-05-07 07:09 |
|---|---|
| Airport | John F. Kennedy International Airport (KJFK) |
Arrival
| Time | 2026-05-07 12:55 |
|---|---|
| Airport | Manchester Airport (EGCC) |
| Time | Latitude | Longitude | Altitude | Speed | Heading |
|---|---|---|---|---|---|
| 2026-05-07 06:51 | 40.65053 | -73.81176 | 31 ft | 0 kts | 332° |
| 2026-05-07 07:00 | 40.65037 | -73.81165 | 31 ft | 4 kts | 332° |
| 2026-05-07 07:00 | 40.65013 | -73.81148 | 25 ft | 4 kts | 332° |
| 2026-05-07 07:00 | 40.64989 | -73.81131 | 25 ft | 4 kts | 332° |
| 2026-05-07 07:01 | 40.64965 | -73.81114 | 27 ft | 4 kts | 332° |
| 2026-05-07 07:01 | 40.64964 | -73.81114 | 27 ft | 0 kts | 332° |
| 2026-05-07 07:03 | 40.64968 | -73.81117 | 27 ft | 6 kts | 327° |
| 2026-05-07 07:03 | 40.64972 | -73.81161 | 28 ft | 5 kts | 253° |
| 2026-05-07 07:03 | 40.64925 | -73.81213 | 30 ft | 11 kts | 188° |
| 2026-05-07 07:04 | 40.64893 | -73.81189 | 31 ft | 10 kts | 134° |
| 2026-05-07 07:04 | 40.64835 | -73.81070 | 30 ft | 21 kts | 121° |
| 2026-05-07 07:04 | 40.64741 | -73.80865 | 32 ft | 28 kts | 121° |
| 2026-05-07 07:04 | 40.64636 | -73.80631 | 28 ft | 31 kts | 121° |
| 2026-05-07 07:05 | 40.64517 | -73.80369 | 31 ft | 35 kts | 121° |
| 2026-05-07 07:05 | 40.64393 | -73.80095 | 27 ft | 35 kts | 121° |
| 2026-05-07 07:05 | 40.64253 | -73.79842 | 31 ft | 34 kts | 136° |
| 2026-05-07 07:05 | 40.64116 | -73.79591 | 30 ft | 34 kts | 121° |
| 2026-05-07 07:06 | 40.63989 | -73.79319 | 27 ft | 36 kts | 121° |
| 2026-05-07 07:06 | 40.63858 | -73.79035 | 30 ft | 36 kts | 121° |
| 2026-05-07 07:06 | 40.63732 | -73.78756 | 35 ft | 35 kts | 121° |
| 2026-05-07 07:06 | 40.63606 | -73.78479 | 35 ft | 35 kts | 121° |
| 2026-05-07 07:07 | 40.63476 | -73.78190 | 31 ft | 37 kts | 120° |
| 2026-05-07 07:07 | 40.63366 | -73.77943 | 30 ft | 18 kts | 120° |
| 2026-05-07 07:07 | 40.63264 | -73.77712 | 33 ft | 39 kts | 120° |
| 2026-05-07 07:07 | 40.63126 | -73.77411 | 35 ft | 39 kts | 121° |
| 2026-05-07 07:08 | 40.62988 | -73.77114 | 30 ft | 24 kts | 134° |
| 2026-05-07 07:08 | 40.62871 | -73.77143 | 30 ft | 25 kts | 208° |
| 2026-05-07 07:08 | 40.62825 | -73.77232 | 30 ft | 14 kts | 288° |
| 2026-05-07 07:08 | 40.62844 | -73.77276 | 31 ft | 0 kts | 301° |
| 2026-05-07 07:09 | 40.62937 | -73.77479 | 34 ft | 74 kts | 301° |
| 2026-05-07 07:09 | 40.63386 | -73.78453 | 29 ft | 171 kts | 302° |
| 2026-05-07 07:09 | 40.64059 | -73.79943 | 812 ft | 198 kts | 301° |
| 2026-05-07 07:10 | 40.64799 | -73.81614 | 1913 ft | 230 kts | 302° |
| 2026-05-07 07:10 | 40.65672 | -73.83572 | 3004 ft | 264 kts | 301° |
| 2026-05-07 07:10 | 40.66706 | -73.85695 | 4246 ft | 286 kts | 301° |
| 2026-05-07 07:10 | 40.67930 | -73.87863 | 5495 ft | 304 kts | 306° |
| 2026-05-07 07:11 | 40.69582 | -73.89743 | 6752 ft | 327 kts | 320° |
| 2026-05-07 07:11 | 40.71751 | -73.90830 | 7979 ft | 354 kts | 343° |
| 2026-05-07 07:11 | 40.74318 | -73.90681 | 9288 ft | 379 kts | 7° |
| 2026-05-07 07:11 | 40.76821 | -73.89421 | 10555 ft | 392 kts | 22° |
| 2026-05-07 07:12 | 40.79155 | -73.87611 | 11796 ft | 397 kts | 29° |
| 2026-05-07 07:12 | 40.81447 | -73.85550 | 13002 ft | 402 kts | 31° |
| 2026-05-07 07:12 | 40.83768 | -73.83415 | 13963 ft | 412 kts | 31° |
| 2026-05-07 07:12 | 40.86170 | -73.81272 | 14884 ft | 420 kts | 28° |
| 2026-05-07 07:13 | 40.88645 | -73.79159 | 15817 ft | 427 kts | 27° |
| 2026-05-07 07:13 | 40.91189 | -73.77067 | 16780 ft | 433 kts | 25° |
| 2026-05-07 07:13 | 40.93781 | -73.74984 | 17781 ft | 438 kts | 24° |
| 2026-05-07 07:13 | 40.96402 | -73.72902 | 18704 ft | 442 kts | 24° |
| 2026-05-07 07:14 | 40.99046 | -73.70807 | 19613 ft | 444 kts | 23° |
| 2026-05-07 07:14 | 41.01716 | -73.68690 | 20385 ft | 451 kts | 22° |
| 2026-05-07 07:14 | 41.04422 | -73.66543 | 21167 ft | 457 kts | 22° |
| 2026-05-07 07:14 | 41.07166 | -73.64358 | 21913 ft | 462 kts | 22° |
| 2026-05-07 07:15 | 41.09929 | -73.62152 | 22708 ft | 466 kts | 22° |
| 2026-05-07 07:15 | 41.12711 | -73.59922 | 23508 ft | 468 kts | 21° |
| 2026-05-07 07:15 | 41.15519 | -73.57670 | 24012 ft | 476 kts | 21° |
| 2026-05-07 07:15 | 41.18377 | -73.55380 | 24474 ft | 484 kts | 21° |
| 2026-05-07 07:16 | 41.21281 | -73.53053 | 24932 ft | 492 kts | 21° |
| 2026-05-07 07:16 | 41.24229 | -73.50685 | 25468 ft | 499 kts | 21° |
| 2026-05-07 07:16 | 41.27219 | -73.48279 | 25953 ft | 505 kts | 21° |
| 2026-05-07 07:16 | 41.30242 | -73.45842 | 26443 ft | 512 kts | 21° |
| 2026-05-07 07:17 | 41.33305 | -73.43370 | 26941 ft | 517 kts | 21° |
| 2026-05-07 07:17 | 41.36395 | -73.40867 | 27452 ft | 523 kts | 21° |
| 2026-05-07 07:17 | 41.39517 | -73.38330 | 27961 ft | 528 kts | 20° |
| 2026-05-07 07:17 | 41.42671 | -73.35771 | 28544 ft | 533 kts | 20° |
| 2026-05-07 07:18 | 41.45845 | -73.33173 | 29092 ft | 540 kts | 22° |
| 2026-05-07 07:18 | 41.48877 | -73.30070 | 29620 ft | 558 kts | 32° |
| 2026-05-07 07:18 | 41.51716 | -73.26605 | 30122 ft | 564 kts | 34° |
| 2026-05-07 07:18 | 41.54544 | -73.22949 | 30595 ft | 568 kts | 36° |
| 2026-05-07 07:19 | 41.57392 | -73.19295 | 31073 ft | 564 kts | 31° |
| 2026-05-07 07:19 | 41.60485 | -73.16224 | 31480 ft | 550 kts | 19° |
| 2026-05-07 07:19 | 41.63870 | -73.13956 | 31727 ft | 533 kts | 6° |
| 2026-05-07 07:19 | 41.67370 | -73.12647 | 31974 ft | 513 kts | 354° |
| 2026-05-07 07:20 | 41.70851 | -73.12253 | 32231 ft | 492 kts | 343° |
| 2026-05-07 07:20 | 41.74234 | -73.12548 | 32482 ft | 485 kts | 338° |
| 2026-05-07 07:20 | 41.77586 | -73.13051 | 32781 ft | 486 kts | 336° |
| 2026-05-07 07:20 | 41.80943 | -73.13645 | 33038 ft | 488 kts | 335° |
| 2026-05-07 07:21 | 41.84314 | -73.14270 | 33308 ft | 491 kts | 335° |
| 2026-05-07 07:21 | 41.87705 | -73.14896 | 33564 ft | 493 kts | 336° |
| 2026-05-07 07:21 | 41.91110 | -73.15507 | 33827 ft | 494 kts | 336° |
| 2026-05-07 07:21 | 41.94518 | -73.16100 | 34062 ft | 493 kts | 336° |
| 2026-05-07 07:22 | 41.97924 | -73.16683 | 34353 ft | 493 kts | 336° |
| 2026-05-07 07:22 | 42.01324 | -73.17259 | 34588 ft | 492 kts | 336° |
| 2026-05-07 07:22 | 42.04720 | -73.17837 | 34824 ft | 491 kts | 336° |
| 2026-05-07 07:22 | 42.08109 | -73.18413 | 35067 ft | 491 kts | 336° |
| 2026-05-07 07:23 | 42.11490 | -73.18988 | 35305 ft | 489 kts | 336° |
| 2026-05-07 07:23 | 42.14868 | -73.19566 | 35555 ft | 489 kts | 336° |
| 2026-05-07 07:23 | 42.18234 | -73.20142 | 35805 ft | 487 kts | 336° |
| 2026-05-07 07:23 | 42.21600 | -73.20720 | 36068 ft | 487 kts | 336° |
| 2026-05-07 07:24 | 42.24916 | -73.21292 | 36317 ft | 486 kts | 336° |
| 2026-05-07 07:24 | 42.28268 | -73.21871 | 36580 ft | 485 kts | 335° |
| 2026-05-07 07:24 | 42.31658 | -73.22455 | 36845 ft | 484 kts | 336° |
| 2026-05-07 07:24 | 42.34994 | -73.23030 | 37110 ft | 483 kts | 336° |
| 2026-05-07 07:25 | 42.41661 | -73.24184 | 37713 ft | 483 kts | 336° |
| 2026-05-07 07:25 | 42.44984 | -73.24761 | 37976 ft | 482 kts | 336° |
| 2026-05-07 07:25 | 42.48270 | -73.25332 | 38245 ft | 482 kts | 336° |
| 2026-05-07 07:26 | 42.51624 | -73.25801 | 38520 ft | 491 kts | 341° |
| 2026-05-07 07:26 | 42.55101 | -73.25711 | 38740 ft | 510 kts | 350° |
| 2026-05-07 07:26 | 42.58666 | -73.24838 | 38979 ft | 532 kts | 1° |
| 2026-05-07 07:26 | 42.62203 | -73.23040 | 39235 ft | 554 kts | 15° |
| 2026-05-07 07:27 | 42.65584 | -73.20400 | 39467 ft | 565 kts | 21° |
| 2026-05-07 07:27 | 42.68887 | -73.17477 | 39698 ft | 568 kts | 24° |
| 2026-05-07 07:27 | 42.72147 | -73.14440 | 39927 ft | 568 kts | 25° |
| 2026-05-07 07:27 | 42.75392 | -73.11361 | 40174 ft | 568 kts | 25° |
| 2026-05-07 07:28 | 42.78627 | -73.08292 | 40458 ft | 566 kts | 26° |
| 2026-05-07 07:28 | 42.81859 | -73.05245 | 40695 ft | 564 kts | 26° |
| 2026-05-07 07:28 | 42.85100 | -73.02212 | 40862 ft | 565 kts | 26° |
| 2026-05-07 07:29 | 42.91626 | -72.96154 | 40865 ft | 570 kts | 26° |
| 2026-05-07 07:29 | 42.98203 | -72.90053 | 40870 ft | 573 kts | 26° |
| 2026-05-07 07:30 | 43.04800 | -72.83909 | 40872 ft | 574 kts | 26° |
| 2026-05-07 07:30 | 43.11405 | -72.77741 | 40886 ft | 575 kts | 27° |
| 2026-05-07 07:31 | 43.18001 | -72.71563 | 40852 ft | 574 kts | 27° |
| 2026-05-07 07:31 | 43.24592 | -72.65372 | 40850 ft | 574 kts | 27° |
| 2026-05-07 07:32 | 43.31183 | -72.59169 | 40831 ft | 574 kts | 27° |
| 2026-05-07 07:32 | 43.36645 | -72.54012 | 40851 ft | 572 kts | 27° |
| 2026-05-07 07:33 | 43.43202 | -72.47808 | 40852 ft | 572 kts | 27° |
| 2026-05-07 07:33 | 43.50819 | -72.40580 | 40849 ft | 572 kts | 27° |
| 2026-05-07 07:34 | 43.56313 | -72.35352 | 40841 ft | 572 kts | 27° |
| 2026-05-07 07:34 | 43.62828 | -72.29138 | 40851 ft | 572 kts | 28° |
| 2026-05-07 07:35 | 43.69366 | -72.22885 | 40833 ft | 571 kts | 28° |
| 2026-05-07 07:35 | 43.75892 | -72.16627 | 40835 ft | 571 kts | 28° |
| 2026-05-07 07:36 | 43.82412 | -72.10358 | 40828 ft | 570 kts | 28° |
| 2026-05-07 07:36 | 43.88923 | -72.04080 | 40833 ft | 570 kts | 28° |
| 2026-05-07 07:37 | 43.95429 | -71.97791 | 40851 ft | 570 kts | 29° |
| 2026-05-07 07:37 | 44.01925 | -71.91494 | 40829 ft | 569 kts | 29° |
| 2026-05-07 07:38 | 44.08414 | -71.85185 | 40828 ft | 569 kts | 29° |
| 2026-05-07 07:38 | 44.14906 | -71.78857 | 40827 ft | 569 kts | 29° |
| 2026-05-07 07:39 | 44.21337 | -71.72572 | 40823 ft | 568 kts | 29° |
| 2026-05-07 07:39 | 44.27801 | -71.66237 | 40826 ft | 568 kts | 30° |
| 2026-05-07 07:40 | 44.34265 | -71.59885 | 40832 ft | 567 kts | 30° |
| 2026-05-07 07:40 | 44.40711 | -71.53532 | 40832 ft | 567 kts | 30° |
| 2026-05-07 07:41 | 44.47154 | -71.47167 | 40837 ft | 567 kts | 30° |
| 2026-05-07 07:41 | 44.53593 | -71.40786 | 40824 ft | 567 kts | 30° |
| 2026-05-07 07:42 | 44.60017 | -71.34401 | 40826 ft | 566 kts | 30° |
| 2026-05-07 07:42 | 44.66440 | -71.28001 | 40827 ft | 566 kts | 30° |
| 2026-05-07 07:43 | 44.72855 | -71.21594 | 40816 ft | 565 kts | 31° |
| 2026-05-07 07:43 | 44.79272 | -71.15167 | 40835 ft | 565 kts | 31° |
| 2026-05-07 07:44 | 44.85255 | -71.07942 | 40817 ft | 574 kts | 47° |
| 2026-05-07 07:44 | 44.90271 | -70.99154 | 40790 ft | 575 kts | 50° |
| 2026-05-07 07:45 | 44.95078 | -70.90133 | 40837 ft | 575 kts | 51° |
| 2026-05-07 07:45 | 44.99850 | -70.81079 | 40807 ft | 574 kts | 51° |
| 2026-05-07 07:46 | 45.04632 | -70.72037 | 40804 ft | 574 kts | 51° |
| 2026-05-07 07:46 | 45.09418 | -70.63000 | 40801 ft | 574 kts | 51° |
| 2026-05-07 07:47 | 45.14171 | -70.54006 | 40783 ft | 574 kts | 51° |
| 2026-05-07 07:47 | 45.18943 | -70.44944 | 40787 ft | 574 kts | 51° |
| 2026-05-07 07:48 | 45.23707 | -70.35867 | 40784 ft | 574 kts | 51° |
| 2026-05-07 07:48 | 45.28463 | -70.26776 | 40772 ft | 573 kts | 51° |
| 2026-05-07 07:49 | 45.33207 | -70.17677 | 40767 ft | 573 kts | 51° |
| 2026-05-07 07:49 | 45.37946 | -70.08560 | 40769 ft | 573 kts | 52° |
| 2026-05-07 07:50 | 45.42674 | -69.99435 | 40770 ft | 573 kts | 52° |
| 2026-05-07 07:50 | 45.47404 | -69.90277 | 40761 ft | 573 kts | 52° |
| 2026-05-07 07:51 | 45.52120 | -69.81117 | 40750 ft | 573 kts | 52° |
| 2026-05-07 07:51 | 45.56813 | -69.71970 | 40765 ft | 570 kts | 52° |
| 2026-05-07 07:52 | 45.61482 | -69.62842 | 40737 ft | 569 kts | 52° |
| 2026-05-07 07:52 | 45.66136 | -69.53713 | 40733 ft | 568 kts | 52° |
| 2026-05-07 07:53 | 45.70785 | -69.44566 | 40740 ft | 568 kts | 52° |
| 2026-05-07 07:53 | 45.75422 | -69.35412 | 40740 ft | 568 kts | 52° |
| 2026-05-07 07:54 | 45.80050 | -69.26246 | 40739 ft | 567 kts | 53° |
| 2026-05-07 07:54 | 45.84668 | -69.17071 | 40744 ft | 567 kts | 53° |
| 2026-05-07 07:55 | 45.89277 | -69.07884 | 40746 ft | 567 kts | 53° |
| 2026-05-07 07:55 | 45.93879 | -68.98678 | 40725 ft | 566 kts | 53° |
| 2026-05-07 07:56 | 45.98434 | -68.89542 | 40730 ft | 566 kts | 53° |
| 2026-05-07 07:56 | 46.03016 | -68.80319 | 40741 ft | 566 kts | 53° |
| 2026-05-07 07:57 | 46.07586 | -68.71089 | 40747 ft | 566 kts | 53° |
| 2026-05-07 07:57 | 46.12145 | -68.61850 | 40753 ft | 566 kts | 53° |
| 2026-05-07 07:58 | 46.16702 | -68.52584 | 40753 ft | 566 kts | 53° |
| 2026-05-07 07:58 | 46.21242 | -68.43325 | 40766 ft | 565 kts | 54° |
| 2026-05-07 07:59 | 46.25779 | -68.34041 | 40771 ft | 565 kts | 54° |
| 2026-05-07 07:59 | 46.30305 | -68.24747 | 40770 ft | 565 kts | 54° |
| 2026-05-07 08:00 | 46.34823 | -68.15441 | 40767 ft | 565 kts | 54° |
| 2026-05-07 08:00 | 46.39329 | -68.06128 | 40772 ft | 565 kts | 54° |
| 2026-05-07 08:01 | 46.43830 | -67.96794 | 40759 ft | 565 kts | 54° |
| 2026-05-07 08:01 | 46.48294 | -67.87507 | 40754 ft | 564 kts | 54° |
| 2026-05-07 08:02 | 46.52772 | -67.78157 | 40752 ft | 564 kts | 54° |
| 2026-05-07 08:02 | 46.57239 | -67.68801 | 40754 ft | 564 kts | 54° |
| 2026-05-07 08:03 | 46.61702 | -67.59421 | 40739 ft | 564 kts | 55° |
| 2026-05-07 08:03 | 46.66161 | -67.50018 | 40762 ft | 564 kts | 55° |
| 2026-05-07 08:04 | 46.70604 | -67.40616 | 40763 ft | 564 kts | 55° |
| 2026-05-07 08:04 | 46.75040 | -67.31198 | 40729 ft | 564 kts | 55° |
| 2026-05-07 08:05 | 46.79468 | -67.21765 | 40731 ft | 563 kts | 55° |
| 2026-05-07 08:05 | 46.83861 | -67.12375 | 40731 ft | 563 kts | 55° |
| 2026-05-07 08:06 | 46.88480 | -67.03155 | 40710 ft | 562 kts | 49° |
| 2026-05-07 08:06 | 46.93576 | -66.94476 | 40708 ft | 562 kts | 47° |
| 2026-05-07 08:07 | 46.98739 | -66.85895 | 40688 ft | 562 kts | 47° |
| 2026-05-07 08:07 | 47.03911 | -66.77298 | 40683 ft | 562 kts | 47° |
| 2026-05-07 08:08 | 47.09063 | -66.68681 | 40683 ft | 562 kts | 47° |
| 2026-05-07 08:08 | 47.14202 | -66.60045 | 40653 ft | 561 kts | 48° |
| 2026-05-07 08:09 | 47.19325 | -66.51401 | 40652 ft | 561 kts | 48° |
| 2026-05-07 08:09 | 47.24446 | -66.42735 | 40646 ft | 561 kts | 48° |
| 2026-05-07 08:10 | 47.29553 | -66.34065 | 40645 ft | 560 kts | 48° |
| 2026-05-07 08:10 | 47.34654 | -66.25379 | 40639 ft | 560 kts | 48° |
| 2026-05-07 08:11 | 47.39749 | -66.16675 | 40638 ft | 560 kts | 48° |
| 2026-05-07 08:11 | 47.44839 | -66.07952 | 40629 ft | 560 kts | 49° |
| 2026-05-07 08:12 | 47.49912 | -65.99229 | 40615 ft | 559 kts | 49° |
| 2026-05-07 08:12 | 47.54943 | -65.90550 | 40577 ft | 559 kts | 49° |
| 2026-05-07 08:13 | 47.59999 | -65.81801 | 40596 ft | 559 kts | 49° |
| 2026-05-07 08:13 | 47.65048 | -65.73034 | 40596 ft | 558 kts | 49° |
| 2026-05-07 08:14 | 47.70088 | -65.64256 | 40599 ft | 558 kts | 49° |
| 2026-05-07 08:14 | 47.75118 | -65.55465 | 40628 ft | 558 kts | 49° |
| 2026-05-07 08:15 | 47.80139 | -65.46661 | 40630 ft | 558 kts | 49° |
| 2026-05-07 08:15 | 47.85152 | -65.37843 | 40631 ft | 558 kts | 49° |
| 2026-05-07 08:16 | 47.90160 | -65.29004 | 40634 ft | 558 kts | 49° |
| 2026-05-07 08:16 | 47.95162 | -65.20146 | 40634 ft | 558 kts | 50° |
| 2026-05-07 08:17 | 48.00147 | -65.11292 | 40641 ft | 557 kts | 50° |
| 2026-05-07 08:17 | 48.05129 | -65.02411 | 40645 ft | 557 kts | 50° |
| 2026-05-07 08:18 | 48.10096 | -64.93529 | 40625 ft | 557 kts | 50° |
| 2026-05-07 08:18 | 48.15057 | -64.84627 | 40655 ft | 556 kts | 50° |
| 2026-05-07 08:19 | 48.20003 | -64.75723 | 40659 ft | 556 kts | 50° |
| 2026-05-07 08:19 | 48.24946 | -64.66794 | 40667 ft | 556 kts | 50° |
| 2026-05-07 08:20 | 48.29045 | -64.59369 | 40652 ft | 556 kts | 50° |
| 2026-05-07 08:20 | 48.34771 | -64.48959 | 40666 ft | 556 kts | 50° |
| 2026-05-07 08:21 | 48.39698 | -64.39971 | 40656 ft | 556 kts | 50° |
| 2026-05-07 08:21 | 48.43815 | -64.32436 | 40673 ft | 556 kts | 50° |
| 2026-05-07 08:22 | 48.48724 | -64.23425 | 40661 ft | 556 kts | 50° |
| 2026-05-07 08:22 | 48.53587 | -64.14469 | 40656 ft | 556 kts | 51° |
| 2026-05-07 08:23 | 48.58473 | -64.05438 | 40668 ft | 556 kts | 51° |
| 2026-05-07 08:23 | 48.63361 | -63.96375 | 40661 ft | 555 kts | 51° |
| 2026-05-07 08:24 | 48.68228 | -63.87319 | 40666 ft | 555 kts | 51° |
| 2026-05-07 08:24 | 48.73091 | -63.78240 | 40663 ft | 555 kts | 51° |
| 2026-05-07 08:25 | 48.77946 | -63.69144 | 40671 ft | 555 kts | 51° |
| 2026-05-07 08:25 | 48.82793 | -63.60033 | 40674 ft | 555 kts | 51° |
| 2026-05-07 08:26 | 48.90052 | -63.46330 | 40688 ft | 555 kts | 51° |
| 2026-05-07 08:26 | 48.94883 | -63.37171 | 40687 ft | 555 kts | 51° |
| 2026-05-07 08:27 | 48.99704 | -63.28000 | 40689 ft | 555 kts | 51° |
| 2026-05-07 08:27 | 49.04522 | -63.18802 | 40701 ft | 555 kts | 52° |
| 2026-05-07 08:28 | 49.09335 | -63.09582 | 40710 ft | 555 kts | 52° |
| 2026-05-07 08:28 | 49.14140 | -63.00345 | 40713 ft | 556 kts | 52° |
| 2026-05-07 08:29 | 49.18939 | -62.91089 | 40721 ft | 556 kts | 52° |
| 2026-05-07 08:29 | 49.23729 | -62.81816 | 40712 ft | 555 kts | 52° |
| 2026-05-07 08:30 | 49.28506 | -62.72537 | 40723 ft | 555 kts | 52° |
| 2026-05-07 08:30 | 49.33277 | -62.63237 | 40736 ft | 555 kts | 52° |
| 2026-05-07 08:31 | 49.38040 | -62.53921 | 40734 ft | 555 kts | 52° |
| 2026-05-07 08:31 | 49.42791 | -62.44593 | 40734 ft | 555 kts | 52° |
| 2026-05-07 08:32 | 49.47540 | -62.35239 | 40733 ft | 555 kts | 52° |
| 2026-05-07 08:32 | 49.52281 | -62.25865 | 40729 ft | 555 kts | 52° |
| 2026-05-07 08:33 | 49.56991 | -62.16523 | 40740 ft | 555 kts | 52° |
| 2026-05-07 08:33 | 49.61720 | -62.07108 | 40743 ft | 555 kts | 52° |
| 2026-05-07 08:34 | 49.66440 | -61.97677 | 40740 ft | 555 kts | 52° |
| 2026-05-07 08:34 | 49.71154 | -61.88225 | 40746 ft | 555 kts | 53° |
| 2026-05-07 08:35 | 49.75853 | -61.78769 | 40757 ft | 554 kts | 53° |
| 2026-05-07 08:35 | 49.80539 | -61.69308 | 40771 ft | 553 kts | 53° |
| 2026-05-07 08:36 | 49.85212 | -61.59836 | 40769 ft | 553 kts | 53° |
| 2026-05-07 08:36 | 49.89875 | -61.50351 | 40783 ft | 553 kts | 53° |
| 2026-05-07 08:37 | 49.94495 | -61.40918 | 40785 ft | 553 kts | 53° |
| 2026-05-07 08:37 | 49.99143 | -61.31396 | 40788 ft | 553 kts | 53° |
| 2026-05-07 08:38 | 50.03782 | -61.21859 | 40790 ft | 553 kts | 53° |
| 2026-05-07 08:38 | 50.08415 | -61.12298 | 40796 ft | 553 kts | 54° |
| 2026-05-07 08:39 | 50.13035 | -61.02730 | 40794 ft | 553 kts | 54° |
| 2026-05-07 08:39 | 50.17648 | -60.93142 | 40805 ft | 553 kts | 54° |
| 2026-05-07 08:40 | 50.22254 | -60.83531 | 40824 ft | 553 kts | 54° |
| 2026-05-07 08:40 | 50.26847 | -60.73916 | 40828 ft | 552 kts | 54° |
| 2026-05-07 08:41 | 50.31428 | -60.64289 | 40830 ft | 551 kts | 54° |
| 2026-05-07 08:41 | 50.35993 | -60.54659 | 40837 ft | 551 kts | 54° |
| 2026-05-07 08:42 | 50.40555 | -60.45001 | 40841 ft | 551 kts | 54° |
| 2026-05-07 08:42 | 50.45104 | -60.35338 | 40852 ft | 550 kts | 54° |
| 2026-05-07 08:43 | 50.49643 | -60.25657 | 40856 ft | 550 kts | 54° |
| 2026-05-07 08:43 | 50.54145 | -60.16020 | 40862 ft | 550 kts | 55° |
| 2026-05-07 08:44 | 50.58668 | -60.06304 | 40863 ft | 551 kts | 55° |
| 2026-05-07 08:44 | 50.63190 | -59.96552 | 40864 ft | 551 kts | 55° |
| 2026-05-07 08:45 | 50.67705 | -59.86779 | 40878 ft | 551 kts | 55° |
| 2026-05-07 08:45 | 50.72212 | -59.76988 | 40884 ft | 551 kts | 55° |
| 2026-05-07 08:46 | 50.76717 | -59.67162 | 40882 ft | 553 kts | 55° |
| 2026-05-07 08:46 | 50.81219 | -59.57308 | 40883 ft | 553 kts | 55° |
| 2026-05-07 08:47 | 50.85689 | -59.47487 | 40857 ft | 553 kts | 56° |
| 2026-05-07 08:47 | 50.90180 | -59.37583 | 40898 ft | 554 kts | 56° |
| 2026-05-07 08:48 | 50.94666 | -59.27651 | 40897 ft | 554 kts | 56° |
| 2026-05-07 08:48 | 50.99144 | -59.17699 | 40898 ft | 554 kts | 56° |
| 2026-05-07 08:49 | 51.03615 | -59.07725 | 40904 ft | 554 kts | 56° |
| 2026-05-07 08:49 | 51.08077 | -58.97733 | 40911 ft | 555 kts | 56° |
| 2026-05-07 08:50 | 51.12542 | -58.87694 | 40910 ft | 555 kts | 56° |
| 2026-05-07 08:50 | 51.16991 | -58.77656 | 40909 ft | 555 kts | 56° |
| 2026-05-07 08:51 | 51.21436 | -58.67585 | 40914 ft | 555 kts | 56° |
| 2026-05-07 08:51 | 51.25870 | -58.57500 | 40914 ft | 555 kts | 56° |
| 2026-05-07 08:52 | 51.30295 | -58.47397 | 40920 ft | 555 kts | 56° |
| 2026-05-07 08:52 | 51.34712 | -58.37274 | 40924 ft | 555 kts | 56° |
| 2026-05-07 08:53 | 51.39094 | -58.27190 | 40927 ft | 555 kts | 56° |
| 2026-05-07 08:53 | 51.43490 | -58.17036 | 40927 ft | 555 kts | 56° |
| 2026-05-07 08:54 | 51.47881 | -58.06852 | 40930 ft | 555 kts | 56° |
| 2026-05-07 08:54 | 51.52264 | -57.96648 | 40940 ft | 555 kts | 56° |
| 2026-05-07 08:55 | 51.56635 | -57.86432 | 40937 ft | 555 kts | 57° |
| 2026-05-07 08:55 | 51.61002 | -57.76183 | 40935 ft | 555 kts | 57° |
| 2026-05-07 08:56 | 51.65356 | -57.65925 | 40940 ft | 555 kts | 57° |
| 2026-05-07 08:56 | 51.69704 | -57.55640 | 40940 ft | 555 kts | 57° |
| 2026-05-07 08:57 | 51.74039 | -57.45346 | 40947 ft | 554 kts | 57° |
| 2026-05-07 08:57 | 51.78358 | -57.35047 | 40947 ft | 554 kts | 57° |
| 2026-05-07 08:58 | 51.82665 | -57.24735 | 40951 ft | 554 kts | 57° |
| 2026-05-07 08:58 | 51.86939 | -57.14464 | 40951 ft | 554 kts | 57° |
| 2026-05-07 08:59 | 51.91226 | -57.04117 | 40949 ft | 554 kts | 57° |
| 2026-05-07 08:59 | 51.95514 | -56.93727 | 40942 ft | 554 kts | 57° |
| 2026-05-07 09:00 | 51.99792 | -56.83321 | 40951 ft | 555 kts | 57° |
| 2026-05-07 09:00 | 52.04065 | -56.72884 | 40951 ft | 555 kts | 57° |
| 2026-05-07 09:01 | 52.08328 | -56.62428 | 40940 ft | 555 kts | 57° |
| 2026-05-07 09:01 | 52.12582 | -56.51952 | 40940 ft | 555 kts | 57° |
| 2026-05-07 09:02 | 52.16825 | -56.41459 | 40937 ft | 555 kts | 57° |
| 2026-05-07 09:02 | 52.21060 | -56.30944 | 40936 ft | 555 kts | 57° |
| 2026-05-07 09:03 | 52.25289 | -56.20401 | 40929 ft | 555 kts | 57° |
| 2026-05-07 09:03 | 52.29514 | -56.09822 | 40927 ft | 555 kts | 58° |
| 2026-05-07 09:04 | 52.33697 | -55.99308 | 40927 ft | 555 kts | 58° |
| 2026-05-07 09:04 | 52.37897 | -55.88705 | 40925 ft | 555 kts | 58° |
| 2026-05-07 09:05 | 52.41727 | -55.77753 | 40926 ft | 554 kts | 64° |
| 2026-05-07 09:05 | 52.45243 | -55.66506 | 40902 ft | 553 kts | 65° |
| 2026-05-07 09:06 | 52.48691 | -55.55231 | 40929 ft | 553 kts | 65° |
| 2026-05-07 09:06 | 52.52124 | -55.43949 | 40942 ft | 552 kts | 65° |
| 2026-05-07 09:07 | 52.55550 | -55.32665 | 40944 ft | 552 kts | 65° |
| 2026-05-07 09:07 | 52.58417 | -55.23195 | 40944 ft | 552 kts | 65° |
| 2026-05-07 09:08 | 52.61829 | -55.11881 | 40944 ft | 552 kts | 65° |
| 2026-05-07 09:08 | 52.65205 | -55.00629 | 40957 ft | 551 kts | 65° |
| 2026-05-07 09:09 | 52.68590 | -54.89297 | 40952 ft | 551 kts | 65° |
| 2026-05-07 09:09 | 52.71984 | -54.77875 | 40952 ft | 551 kts | 65° |
| 2026-05-07 09:10 | 52.75344 | -54.66518 | 40955 ft | 551 kts | 65° |
| 2026-05-07 09:10 | 52.78670 | -54.55218 | 40960 ft | 550 kts | 65° |
| 2026-05-07 09:11 | 52.81997 | -54.43863 | 40963 ft | 549 kts | 65° |
| 2026-05-07 09:11 | 52.85312 | -54.32493 | 40963 ft | 549 kts | 65° |
| 2026-05-07 09:12 | 52.88615 | -54.21113 | 40963 ft | 548 kts | 66° |
| 2026-05-07 09:12 | 52.91909 | -54.09705 | 40971 ft | 548 kts | 65° |
| 2026-05-07 09:13 | 52.95189 | -53.98292 | 40974 ft | 548 kts | 66° |
| 2026-05-07 09:13 | 52.98456 | -53.86869 | 40974 ft | 548 kts | 66° |
| 2026-05-07 09:14 | 53.01712 | -53.75431 | 40974 ft | 548 kts | 66° |
| 2026-05-07 09:14 | 53.04955 | -53.63980 | 40980 ft | 548 kts | 66° |
| 2026-05-07 09:15 | 53.08190 | -53.52499 | 40979 ft | 548 kts | 66° |
| 2026-05-07 09:15 | 53.11387 | -53.41102 | 40980 ft | 547 kts | 66° |
| 2026-05-07 09:16 | 53.14588 | -53.29631 | 40988 ft | 546 kts | 66° |
| 2026-05-07 09:16 | 53.17781 | -53.18133 | 40990 ft | 546 kts | 66° |
| 2026-05-07 09:17 | 53.20959 | -53.06631 | 40991 ft | 546 kts | 66° |
| 2026-05-07 09:17 | 53.24126 | -52.95115 | 40991 ft | 546 kts | 66° |
| 2026-05-07 09:18 | 53.27280 | -52.83585 | 40999 ft | 546 kts | 66° |
| 2026-05-07 09:18 | 53.30425 | -52.72034 | 40999 ft | 545 kts | 66° |
| 2026-05-07 09:19 | 53.33535 | -52.60553 | 40999 ft | 545 kts | 66° |
| 2026-05-07 09:19 | 53.36648 | -52.49002 | 40999 ft | 544 kts | 66° |
| 2026-05-07 09:20 | 53.39747 | -52.37444 | 40981 ft | 544 kts | 66° |
| 2026-05-07 09:20 | 53.42836 | -52.25864 | 41007 ft | 543 kts | 66° |
| 2026-05-07 09:21 | 53.45905 | -52.14304 | 41010 ft | 542 kts | 66° |
| 2026-05-07 09:21 | 53.48959 | -52.02738 | 41009 ft | 542 kts | 67° |
| 2026-05-07 09:22 | 53.52001 | -51.91162 | 41017 ft | 542 kts | 67° |
| 2026-05-07 09:22 | 53.55031 | -51.79572 | 41021 ft | 542 kts | 67° |
| 2026-05-07 09:23 | 53.58047 | -51.67974 | 41021 ft | 541 kts | 67° |
| 2026-05-07 09:23 | 53.61052 | -51.56360 | 41020 ft | 540 kts | 67° |
| 2026-05-07 09:24 | 53.64039 | -51.44756 | 41026 ft | 540 kts | 67° |
| 2026-05-07 09:24 | 53.67015 | -51.33134 | 41026 ft | 540 kts | 67° |
| 2026-05-07 09:25 | 53.69981 | -51.21488 | 41011 ft | 539 kts | 67° |
| 2026-05-07 09:25 | 53.72927 | -51.09863 | 41018 ft | 537 kts | 67° |
| 2026-05-07 09:26 | 53.75835 | -50.98327 | 41027 ft | 537 kts | 67° |
| 2026-05-07 09:26 | 53.78750 | -50.86705 | 41030 ft | 537 kts | 67° |
| 2026-05-07 09:27 | 53.81654 | -50.75066 | 41046 ft | 537 kts | 67° |
| 2026-05-07 09:28 | 53.85986 | -50.57586 | 41038 ft | 536 kts | 67° |
| 2026-05-07 09:28 | 53.88857 | -50.45926 | 41045 ft | 536 kts | 67° |
| 2026-05-07 09:29 | 53.91716 | -50.34252 | 41036 ft | 536 kts | 67° |
| 2026-05-07 09:29 | 53.94562 | -50.22565 | 41049 ft | 536 kts | 67° |
| 2026-05-07 09:30 | 53.97394 | -50.10878 | 41051 ft | 535 kts | 67° |
| 2026-05-07 09:30 | 54.00040 | -49.99073 | 41055 ft | 535 kts | 75° |
| 2026-05-07 09:31 | 54.01938 | -49.86858 | 41044 ft | 534 kts | 76° |
| 2026-05-07 09:31 | 54.03690 | -49.74581 | 41055 ft | 534 kts | 77° |
| 2026-05-07 09:32 | 54.05412 | -49.62275 | 41059 ft | 534 kts | 76° |
| 2026-05-07 09:32 | 54.07130 | -49.49974 | 41059 ft | 534 kts | 76° |
| 2026-05-07 09:33 | 54.08845 | -49.37667 | 41050 ft | 534 kts | 77° |
| 2026-05-07 09:33 | 54.10551 | -49.25334 | 41068 ft | 534 kts | 77° |
| 2026-05-07 09:34 | 54.12242 | -49.13007 | 41067 ft | 534 kts | 77° |
| 2026-05-07 09:34 | 54.13918 | -49.00673 | 41060 ft | 533 kts | 77° |
| 2026-05-07 09:35 | 54.15582 | -48.88334 | 41074 ft | 533 kts | 77° |
| 2026-05-07 09:35 | 54.17231 | -48.76005 | 41065 ft | 533 kts | 77° |
| 2026-05-07 09:36 | 54.18857 | -48.63742 | 41073 ft | 533 kts | 77° |
| 2026-05-07 09:36 | 54.20482 | -48.51390 | 41088 ft | 533 kts | 77° |
| 2026-05-07 09:37 | 54.22093 | -48.39029 | 41071 ft | 533 kts | 77° |
| 2026-05-07 09:37 | 54.23692 | -48.26652 | 41078 ft | 533 kts | 77° |
| 2026-05-07 09:38 | 54.25279 | -48.14268 | 41089 ft | 532 kts | 77° |
| 2026-05-07 09:38 | 54.26845 | -48.01930 | 41082 ft | 530 kts | 77° |
| 2026-05-07 09:39 | 54.28400 | -47.89580 | 41095 ft | 530 kts | 77° |
| 2026-05-07 09:39 | 54.29937 | -47.77259 | 41083 ft | 529 kts | 77° |
| 2026-05-07 09:40 | 54.31458 | -47.64954 | 41098 ft | 528 kts | 77° |
| 2026-05-07 09:40 | 54.32968 | -47.52631 | 41093 ft | 528 kts | 77° |
| 2026-05-07 09:41 | 54.34456 | -47.40378 | 41097 ft | 528 kts | 78° |
| 2026-05-07 09:41 | 54.35941 | -47.28037 | 41101 ft | 528 kts | 78° |
| 2026-05-07 09:42 | 54.37410 | -47.15715 | 41102 ft | 526 kts | 77° |
| 2026-05-07 09:42 | 54.38860 | -47.03438 | 41115 ft | 525 kts | 78° |
| 2026-05-07 09:43 | 54.40297 | -46.91155 | 41115 ft | 525 kts | 78° |
| 2026-05-07 09:43 | 54.41721 | -46.78870 | 41116 ft | 525 kts | 78° |
| 2026-05-07 09:44 | 54.43133 | -46.66576 | 41116 ft | 525 kts | 78° |
| 2026-05-07 09:44 | 54.44532 | -46.54271 | 41128 ft | 525 kts | 78° |
| 2026-05-07 09:45 | 54.45919 | -46.41961 | 41112 ft | 525 kts | 78° |
| 2026-05-07 09:45 | 54.47295 | -46.29628 | 41132 ft | 525 kts | 78° |
| 2026-05-07 09:46 | 54.48656 | -46.17298 | 41123 ft | 525 kts | 78° |
| 2026-05-07 09:46 | 54.50005 | -46.04968 | 41133 ft | 525 kts | 78° |
| 2026-05-07 09:47 | 54.51341 | -45.92625 | 41134 ft | 525 kts | 78° |
| 2026-05-07 09:47 | 54.52659 | -45.80333 | 41145 ft | 525 kts | 78° |
| 2026-05-07 09:48 | 54.53973 | -45.67952 | 41143 ft | 526 kts | 78° |
| 2026-05-07 09:48 | 54.55274 | -45.55563 | 41142 ft | 526 kts | 78° |
| 2026-05-07 09:49 | 54.56562 | -45.43173 | 41157 ft | 526 kts | 78° |
| 2026-05-07 09:49 | 54.57838 | -45.30759 | 41152 ft | 526 kts | 78° |
| 2026-05-07 09:50 | 54.59100 | -45.18353 | 41148 ft | 525 kts | 78° |
| 2026-05-07 09:50 | 54.60350 | -45.05940 | 41150 ft | 525 kts | 78° |
| 2026-05-07 09:51 | 54.61587 | -44.93521 | 41152 ft | 525 kts | 78° |
| 2026-05-07 09:51 | 54.62810 | -44.81102 | 41153 ft | 525 kts | 78° |
| 2026-05-07 09:52 | 54.64021 | -44.68665 | 41162 ft | 525 kts | 78° |
| 2026-05-07 09:52 | 54.65219 | -44.56226 | 41165 ft | 525 kts | 78° |
| 2026-05-07 09:53 | 54.66406 | -44.43769 | 41168 ft | 525 kts | 78° |
| 2026-05-07 09:53 | 54.67579 | -44.31309 | 41171 ft | 525 kts | 78° |
| 2026-05-07 09:54 | 54.68541 | -44.20977 | 41170 ft | 524 kts | 78° |
| 2026-05-07 09:54 | 54.69689 | -44.08530 | 41180 ft | 524 kts | 79° |
| 2026-05-07 09:55 | 54.70825 | -43.96068 | 41182 ft | 525 kts | 79° |
| 2026-05-07 09:55 | 54.71949 | -43.83591 | 41189 ft | 525 kts | 79° |
| 2026-05-07 09:56 | 54.73061 | -43.71097 | 41188 ft | 525 kts | 79° |
| 2026-05-07 09:56 | 54.74159 | -43.58601 | 41199 ft | 525 kts | 79° |
| 2026-05-07 09:57 | 54.75245 | -43.46088 | 41202 ft | 525 kts | 79° |
| 2026-05-07 09:57 | 54.76311 | -43.33654 | 41202 ft | 525 kts | 79° |
| 2026-05-07 09:58 | 54.77369 | -43.21159 | 41203 ft | 524 kts | 79° |
| 2026-05-07 09:58 | 54.78414 | -43.08664 | 41211 ft | 524 kts | 79° |
| 2026-05-07 09:59 | 54.79447 | -42.96150 | 41211 ft | 524 kts | 79° |
| 2026-05-07 09:59 | 54.80467 | -42.83633 | 41224 ft | 525 kts | 79° |
| 2026-05-07 10:00 | 54.81476 | -42.71085 | 41222 ft | 525 kts | 79° |
| 2026-05-07 10:00 | 54.82471 | -42.58535 | 41229 ft | 526 kts | 79° |
| 2026-05-07 10:01 | 54.83455 | -42.45966 | 41230 ft | 526 kts | 79° |
| 2026-05-07 10:01 | 54.84424 | -42.33395 | 41233 ft | 526 kts | 79° |
| 2026-05-07 10:02 | 54.85381 | -42.20830 | 41236 ft | 525 kts | 79° |
| 2026-05-07 10:02 | 54.86325 | -42.08247 | 41236 ft | 525 kts | 79° |
| 2026-05-07 10:03 | 54.87256 | -41.95664 | 41245 ft | 526 kts | 79° |
| 2026-05-07 10:03 | 54.88174 | -41.83067 | 41242 ft | 526 kts | 79° |
| 2026-05-07 10:04 | 54.89079 | -41.70472 | 41242 ft | 526 kts | 80° |
| 2026-05-07 10:04 | 54.89971 | -41.57860 | 41259 ft | 526 kts | 79° |
| 2026-05-07 10:05 | 54.90851 | -41.45241 | 41245 ft | 527 kts | 80° |
| 2026-05-07 10:05 | 54.91716 | -41.32642 | 41251 ft | 527 kts | 79° |
| 2026-05-07 10:06 | 54.92576 | -41.19903 | 41254 ft | 527 kts | 80° |
| 2026-05-07 10:06 | 54.93414 | -41.07309 | 41257 ft | 527 kts | 80° |
| 2026-05-07 10:07 | 54.94244 | -40.94627 | 41278 ft | 528 kts | 79° |
| 2026-05-07 10:07 | 54.95061 | -40.81934 | 41266 ft | 528 kts | 80° |
| 2026-05-07 10:08 | 54.95865 | -40.69235 | 41263 ft | 528 kts | 80° |
| 2026-05-07 10:08 | 54.96657 | -40.56516 | 41269 ft | 528 kts | 80° |
| 2026-05-07 10:09 | 54.97435 | -40.43795 | 41276 ft | 528 kts | 80° |
| 2026-05-07 10:09 | 54.98198 | -40.31089 | 41297 ft | 527 kts | 80° |
| 2026-05-07 10:10 | 54.98948 | -40.18379 | 41275 ft | 528 kts | 80° |
| 2026-05-07 10:10 | 54.99686 | -40.05661 | 41274 ft | 528 kts | 80° |
| 2026-05-07 10:11 | 55.01003 | -39.93164 | 41284 ft | 523 kts | 72° |
| 2026-05-07 10:11 | 55.02715 | -39.80862 | 41286 ft | 522 kts | 71° |
| 2026-05-07 10:12 | 55.04477 | -39.68577 | 41311 ft | 522 kts | 71° |
| 2026-05-07 10:12 | 55.06219 | -39.56310 | 41283 ft | 521 kts | 71° |
| 2026-05-07 10:13 | 55.07925 | -39.44123 | 41289 ft | 520 kts | 72° |
| 2026-05-07 10:13 | 55.09626 | -39.31844 | 41292 ft | 520 kts | 72° |
| 2026-05-07 10:14 | 55.11314 | -39.19552 | 41291 ft | 520 kts | 72° |
| 2026-05-07 10:14 | 55.12990 | -39.07251 | 41303 ft | 520 kts | 72° |
| 2026-05-07 10:15 | 55.14652 | -38.94946 | 41305 ft | 520 kts | 72° |
| 2026-05-07 10:15 | 55.16301 | -38.82646 | 41304 ft | 520 kts | 72° |
| 2026-05-07 10:16 | 55.17937 | -38.70334 | 41308 ft | 520 kts | 72° |
| 2026-05-07 10:16 | 55.19561 | -38.58008 | 41308 ft | 520 kts | 72° |
| 2026-05-07 10:17 | 55.21173 | -38.45670 | 41306 ft | 520 kts | 72° |
| 2026-05-07 10:17 | 55.22773 | -38.33325 | 41306 ft | 520 kts | 72° |
| 2026-05-07 10:18 | 55.24360 | -38.20969 | 41314 ft | 520 kts | 72° |
| 2026-05-07 10:18 | 55.25934 | -38.08601 | 41315 ft | 520 kts | 72° |
| 2026-05-07 10:19 | 55.27487 | -37.96305 | 41338 ft | 520 kts | 73° |
| 2026-05-07 10:19 | 55.29036 | -37.83919 | 41320 ft | 520 kts | 73° |
| 2026-05-07 10:20 | 55.30583 | -37.71443 | 41325 ft | 520 kts | 73° |
| 2026-05-07 10:20 | 55.32098 | -37.59113 | 41327 ft | 520 kts | 73° |
| 2026-05-07 10:21 | 55.33611 | -37.46696 | 41326 ft | 520 kts | 73° |
| 2026-05-07 10:21 | 55.35112 | -37.34258 | 41323 ft | 521 kts | 73° |
| 2026-05-07 10:22 | 55.36604 | -37.21781 | 41321 ft | 522 kts | 73° |
| 2026-05-07 10:22 | 55.38086 | -37.09276 | 41319 ft | 522 kts | 74° |
| 2026-05-07 10:23 | 55.39554 | -36.96761 | 41320 ft | 522 kts | 74° |
| 2026-05-07 10:23 | 55.41009 | -36.84241 | 41320 ft | 523 kts | 74° |
| 2026-05-07 10:24 | 55.42451 | -36.71707 | 41318 ft | 522 kts | 74° |
| 2026-05-07 10:24 | 55.43879 | -36.59188 | 41325 ft | 521 kts | 74° |
| 2026-05-07 10:25 | 55.45293 | -36.46666 | 41324 ft | 521 kts | 74° |
| 2026-05-07 10:25 | 55.46692 | -36.34154 | 41325 ft | 520 kts | 74° |
| 2026-05-07 10:26 | 55.48078 | -36.21641 | 41327 ft | 520 kts | 74° |
| 2026-05-07 10:26 | 55.49450 | -36.09130 | 41327 ft | 520 kts | 74° |
| 2026-05-07 10:27 | 55.50801 | -35.96676 | 41327 ft | 520 kts | 75° |
| 2026-05-07 10:27 | 55.52157 | -35.84057 | 41327 ft | 520 kts | 75° |
| 2026-05-07 10:28 | 55.53492 | -35.71506 | 41327 ft | 520 kts | 75° |
| 2026-05-07 10:28 | 55.54805 | -35.59033 | 41329 ft | 520 kts | 75° |
| 2026-05-07 10:29 | 55.56111 | -35.46493 | 41328 ft | 519 kts | 75° |
| 2026-05-07 10:29 | 55.57405 | -35.33937 | 41327 ft | 519 kts | 75° |
| 2026-05-07 10:30 | 55.59322 | -35.15091 | 41330 ft | 519 kts | 75° |
| 2026-05-07 10:30 | 55.60583 | -35.02529 | 41336 ft | 518 kts | 75° |
| 2026-05-07 10:31 | 55.61828 | -34.89977 | 41325 ft | 518 kts | 75° |
| 2026-05-07 10:31 | 55.63061 | -34.77426 | 41325 ft | 518 kts | 75° |
| 2026-05-07 10:32 | 55.64281 | -34.64864 | 41325 ft | 518 kts | 76° |
| 2026-05-07 10:32 | 55.65490 | -34.52276 | 41325 ft | 518 kts | 76° |
| 2026-05-07 10:33 | 55.66685 | -34.39692 | 41328 ft | 519 kts | 76° |
| 2026-05-07 10:33 | 55.67871 | -34.27063 | 41325 ft | 520 kts | 76° |
| 2026-05-07 10:34 | 55.69043 | -34.14424 | 41328 ft | 520 kts | 76° |
| 2026-05-07 10:34 | 55.70203 | -34.01767 | 41322 ft | 520 kts | 76° |
| 2026-05-07 10:35 | 55.71351 | -33.89095 | 41328 ft | 520 kts | 76° |
| 2026-05-07 10:35 | 55.72486 | -33.76424 | 41328 ft | 521 kts | 76° |
| 2026-05-07 10:36 | 55.73611 | -33.63705 | 41322 ft | 522 kts | 76° |
| 2026-05-07 10:36 | 55.74723 | -33.50975 | 41325 ft | 522 kts | 76° |
| 2026-05-07 10:37 | 55.75822 | -33.38241 | 41320 ft | 522 kts | 76° |
| 2026-05-07 10:37 | 55.76907 | -33.25500 | 41346 ft | 522 kts | 77° |
| 2026-05-07 10:38 | 55.77981 | -33.12734 | 41317 ft | 523 kts | 77° |
| 2026-05-07 10:38 | 55.79043 | -32.99948 | 41316 ft | 523 kts | 77° |
| 2026-05-07 10:39 | 55.80090 | -32.87164 | 41317 ft | 523 kts | 77° |
| 2026-05-07 10:39 | 55.80951 | -32.76525 | 41317 ft | 523 kts | 77° |
| 2026-05-07 10:40 | 55.81975 | -32.63721 | 41334 ft | 524 kts | 77° |
| 2026-05-07 10:40 | 55.82989 | -32.50881 | 41319 ft | 524 kts | 77° |
| 2026-05-07 10:41 | 55.83989 | -32.38028 | 41315 ft | 525 kts | 77° |
| 2026-05-07 10:41 | 55.84975 | -32.25168 | 41324 ft | 525 kts | 77° |
| 2026-05-07 10:42 | 55.85949 | -32.12295 | 41310 ft | 525 kts | 78° |
| 2026-05-07 10:42 | 55.86904 | -31.99488 | 41320 ft | 525 kts | 78° |
| 2026-05-07 10:43 | 55.87850 | -31.86610 | 41315 ft | 525 kts | 78° |
| 2026-05-07 10:43 | 55.88784 | -31.73715 | 41308 ft | 525 kts | 78° |
| 2026-05-07 10:44 | 55.89703 | -31.60819 | 41308 ft | 525 kts | 78° |
| 2026-05-07 10:44 | 55.90611 | -31.47903 | 41305 ft | 525 kts | 78° |
| 2026-05-07 10:45 | 55.91504 | -31.34996 | 41308 ft | 525 kts | 78° |
| 2026-05-07 10:45 | 55.92383 | -31.22080 | 41306 ft | 525 kts | 78° |
| 2026-05-07 10:46 | 55.93249 | -31.09155 | 41303 ft | 525 kts | 79° |
| 2026-05-07 10:46 | 55.94102 | -30.96225 | 41303 ft | 525 kts | 79° |
| 2026-05-07 10:47 | 55.94941 | -30.83293 | 41319 ft | 525 kts | 79° |
| 2026-05-07 10:47 | 55.95767 | -30.70345 | 41301 ft | 525 kts | 79° |
| 2026-05-07 10:48 | 55.96578 | -30.57399 | 41300 ft | 525 kts | 79° |
| 2026-05-07 10:48 | 55.97377 | -30.44439 | 41296 ft | 525 kts | 79° |
| 2026-05-07 10:49 | 55.98162 | -30.31482 | 41296 ft | 525 kts | 79° |
| 2026-05-07 10:49 | 55.98934 | -30.18500 | 41295 ft | 525 kts | 79° |
| 2026-05-07 10:50 | 55.99688 | -30.05610 | 41292 ft | 525 kts | 80° |
| 2026-05-07 10:50 | 56.00394 | -29.92618 | 41292 ft | 526 kts | 81° |
| 2026-05-07 10:51 | 56.00891 | -29.79574 | 41290 ft | 527 kts | 82° |
| 2026-05-07 10:51 | 56.01342 | -29.66509 | 41288 ft | 527 kts | 82° |
| 2026-05-07 10:52 | 56.01809 | -29.53445 | 41293 ft | 527 kts | 82° |
| 2026-05-07 10:52 | 56.02281 | -29.40352 | 41286 ft | 527 kts | 82° |
| 2026-05-07 10:53 | 56.02742 | -29.27280 | 41286 ft | 527 kts | 82° |
| 2026-05-07 10:53 | 56.03190 | -29.14191 | 41287 ft | 527 kts | 82° |
| 2026-05-07 10:54 | 56.03623 | -29.01088 | 41286 ft | 527 kts | 83° |
| 2026-05-07 10:54 | 56.04042 | -28.87992 | 41274 ft | 528 kts | 83° |
| 2026-05-07 10:55 | 56.04447 | -28.74877 | 41275 ft | 528 kts | 83° |
| 2026-05-07 10:55 | 56.04838 | -28.61756 | 41271 ft | 528 kts | 83° |
| 2026-05-07 10:56 | 56.05212 | -28.48721 | 41268 ft | 528 kts | 83° |
| 2026-05-07 10:56 | 56.05576 | -28.35600 | 41281 ft | 528 kts | 83° |
| 2026-05-07 10:57 | 56.05928 | -28.22378 | 41262 ft | 529 kts | 84° |
| 2026-05-07 10:57 | 56.06262 | -28.09323 | 41258 ft | 529 kts | 84° |
| 2026-05-07 10:58 | 56.06583 | -27.96178 | 41260 ft | 529 kts | 84° |
| 2026-05-07 10:58 | 56.06892 | -27.83032 | 41249 ft | 529 kts | 84° |
| 2026-05-07 10:59 | 56.07186 | -27.69879 | 41254 ft | 529 kts | 84° |
| 2026-05-07 10:59 | 56.07467 | -27.56707 | 41249 ft | 529 kts | 84° |
| 2026-05-07 11:00 | 56.07733 | -27.43536 | 41252 ft | 530 kts | 84° |
| 2026-05-07 11:00 | 56.07986 | -27.30351 | 41243 ft | 530 kts | 85° |
| 2026-05-07 11:01 | 56.08224 | -27.17175 | 41241 ft | 530 kts | 85° |
| 2026-05-07 11:01 | 56.08449 | -27.03979 | 41236 ft | 530 kts | 85° |
| 2026-05-07 11:02 | 56.08659 | -26.90787 | 41236 ft | 530 kts | 85° |
| 2026-05-07 11:02 | 56.08856 | -26.77590 | 41226 ft | 530 kts | 85° |
| 2026-05-07 11:03 | 56.09038 | -26.64398 | 41229 ft | 530 kts | 85° |
| 2026-05-07 11:03 | 56.09206 | -26.51196 | 41223 ft | 530 kts | 85° |
| 2026-05-07 11:04 | 56.09361 | -26.37972 | 41221 ft | 531 kts | 86° |
| 2026-05-07 11:04 | 56.09501 | -26.24753 | 41223 ft | 531 kts | 86° |
| 2026-05-07 11:05 | 56.09627 | -26.11529 | 41212 ft | 531 kts | 86° |
| 2026-05-07 11:05 | 56.09739 | -25.98311 | 41209 ft | 531 kts | 86° |
| 2026-05-07 11:06 | 56.09837 | -25.85086 | 41229 ft | 531 kts | 86° |
| 2026-05-07 11:06 | 56.09921 | -25.71937 | 41211 ft | 531 kts | 86° |
| 2026-05-07 11:07 | 56.09990 | -25.58715 | 41208 ft | 531 kts | 87° |
| 2026-05-07 11:07 | 56.10046 | -25.45495 | 41209 ft | 531 kts | 87° |
| 2026-05-07 11:08 | 56.10088 | -25.32268 | 41201 ft | 531 kts | 87° |
| 2026-05-07 11:08 | 56.10115 | -25.19044 | 41204 ft | 531 kts | 87° |
| 2026-05-07 11:09 | 56.10129 | -25.05815 | 41186 ft | 531 kts | 87° |
| 2026-05-07 11:09 | 56.10128 | -24.92584 | 41186 ft | 531 kts | 88° |
| 2026-05-07 11:10 | 56.10112 | -24.79346 | 41183 ft | 531 kts | 88° |
| 2026-05-07 11:10 | 56.10083 | -24.66112 | 41185 ft | 531 kts | 88° |
| 2026-05-07 11:11 | 56.10040 | -24.52876 | 41176 ft | 531 kts | 88° |
| 2026-05-07 11:11 | 56.09983 | -24.39622 | 41176 ft | 531 kts | 88° |
| 2026-05-07 11:12 | 56.09911 | -24.26465 | 41170 ft | 531 kts | 88° |
| 2026-05-07 11:12 | 56.09825 | -24.13231 | 41170 ft | 531 kts | 88° |
| 2026-05-07 11:13 | 56.09725 | -23.99975 | 41165 ft | 532 kts | 89° |
| 2026-05-07 11:13 | 56.09611 | -23.86737 | 41157 ft | 532 kts | 89° |
| 2026-05-07 11:14 | 56.09483 | -23.73498 | 41157 ft | 532 kts | 89° |
| 2026-05-07 11:14 | 56.09340 | -23.60255 | 41157 ft | 532 kts | 89° |
| 2026-05-07 11:15 | 56.09184 | -23.47012 | 41154 ft | 532 kts | 89° |
| 2026-05-07 11:15 | 56.09013 | -23.33771 | 41155 ft | 532 kts | 89° |
| 2026-05-07 11:16 | 56.08828 | -23.20535 | 41149 ft | 532 kts | 89° |
| 2026-05-07 11:16 | 56.08629 | -23.07293 | 41146 ft | 532 kts | 90° |
| 2026-05-07 11:17 | 56.08415 | -22.94052 | 41141 ft | 532 kts | 90° |
| 2026-05-07 11:17 | 56.08188 | -22.80812 | 41138 ft | 532 kts | 90° |
| 2026-05-07 11:18 | 56.07947 | -22.67579 | 41137 ft | 532 kts | 90° |
| 2026-05-07 11:18 | 56.07691 | -22.54341 | 41132 ft | 532 kts | 90° |
| 2026-05-07 11:19 | 56.07420 | -22.41112 | 41124 ft | 532 kts | 90° |
| 2026-05-07 11:19 | 56.07136 | -22.27869 | 41119 ft | 532 kts | 91° |
| 2026-05-07 11:20 | 56.06837 | -22.14635 | 41119 ft | 532 kts | 91° |
| 2026-05-07 11:20 | 56.06525 | -22.01394 | 41114 ft | 533 kts | 91° |
| 2026-05-07 11:21 | 56.06197 | -21.88142 | 41113 ft | 533 kts | 91° |
| 2026-05-07 11:21 | 56.05856 | -21.74897 | 41105 ft | 533 kts | 91° |
| 2026-05-07 11:22 | 56.05500 | -21.61654 | 41099 ft | 533 kts | 91° |
| 2026-05-07 11:22 | 56.05130 | -21.48399 | 41113 ft | 533 kts | 92° |
| 2026-05-07 11:23 | 56.04749 | -21.35232 | 41086 ft | 534 kts | 92° |
| 2026-05-07 11:23 | 56.04350 | -21.21968 | 41089 ft | 534 kts | 92° |
| 2026-05-07 11:24 | 56.03936 | -21.08706 | 41081 ft | 534 kts | 92° |
| 2026-05-07 11:24 | 56.03508 | -20.95430 | 41081 ft | 534 kts | 92° |
| 2026-05-07 11:25 | 56.03067 | -20.82171 | 41077 ft | 535 kts | 92° |
| 2026-05-07 11:25 | 56.02611 | -20.68902 | 41072 ft | 535 kts | 92° |
| 2026-05-07 11:26 | 56.02217 | -20.57776 | 41065 ft | 535 kts | 93° |
| 2026-05-07 11:26 | 56.01737 | -20.44583 | 41068 ft | 535 kts | 93° |
| 2026-05-07 11:27 | 56.01240 | -20.31315 | 41057 ft | 535 kts | 93° |
| 2026-05-07 11:27 | 56.00728 | -20.18044 | 41061 ft | 536 kts | 93° |
| 2026-05-07 11:28 | 56.00184 | -20.04748 | 41043 ft | 536 kts | 95° |
| 2026-05-07 11:28 | 55.98561 | -19.91754 | 41052 ft | 536 kts | 106° |
| 2026-05-07 11:29 | 55.96376 | -19.79017 | 41038 ft | 537 kts | 108° |
| 2026-05-07 11:29 | 55.94092 | -19.66345 | 41035 ft | 537 kts | 108° |
| 2026-05-07 11:30 | 55.91800 | -19.53675 | 41031 ft | 536 kts | 108° |
| 2026-05-07 11:30 | 55.89526 | -19.41084 | 41027 ft | 538 kts | 108° |
| 2026-05-07 11:31 | 55.87229 | -19.28416 | 41015 ft | 537 kts | 108° |
| 2026-05-07 11:31 | 55.84920 | -19.15764 | 41016 ft | 537 kts | 108° |
| 2026-05-07 11:32 | 55.81436 | -18.96838 | 41009 ft | 537 kts | 109° |
| 2026-05-07 11:33 | 55.79096 | -18.84233 | 41012 ft | 536 kts | 109° |
| 2026-05-07 11:33 | 55.76739 | -18.71629 | 41001 ft | 538 kts | 109° |
| 2026-05-07 11:34 | 55.74375 | -18.59065 | 40997 ft | 537 kts | 109° |
| 2026-05-07 11:34 | 55.71993 | -18.46493 | 40989 ft | 536 kts | 109° |
| 2026-05-07 11:35 | 55.69603 | -18.33959 | 40985 ft | 537 kts | 110° |
| 2026-05-07 11:35 | 55.67201 | -18.21446 | 40982 ft | 536 kts | 110° |
| 2026-05-07 11:36 | 55.64785 | -18.08939 | 40980 ft | 538 kts | 110° |
| 2026-05-07 11:36 | 55.62359 | -17.96461 | 40981 ft | 536 kts | 110° |
| 2026-05-07 11:37 | 55.59913 | -17.83967 | 40970 ft | 537 kts | 110° |
| 2026-05-07 11:37 | 55.57480 | -17.71611 | 40969 ft | 537 kts | 110° |
| 2026-05-07 11:38 | 55.55013 | -17.59166 | 40959 ft | 536 kts | 110° |
| 2026-05-07 11:38 | 55.52541 | -17.46772 | 40965 ft | 536 kts | 110° |
| 2026-05-07 11:39 | 55.50054 | -17.34380 | 40948 ft | 535 kts | 111° |
| 2026-05-07 11:39 | 55.47555 | -17.22010 | 40951 ft | 536 kts | 111° |
| 2026-05-07 11:40 | 55.45046 | -17.09671 | 40956 ft | 534 kts | 111° |
| 2026-05-07 11:40 | 55.42524 | -16.97338 | 40953 ft | 535 kts | 111° |
| 2026-05-07 11:41 | 55.39994 | -16.85042 | 40943 ft | 534 kts | 111° |
| 2026-05-07 11:41 | 55.37454 | -16.72775 | 40952 ft | 532 kts | 111° |
| 2026-05-07 11:42 | 55.34910 | -16.60565 | 40955 ft | 532 kts | 112° |
| 2026-05-07 11:42 | 55.32352 | -16.48365 | 40946 ft | 532 kts | 112° |
| 2026-05-07 11:43 | 55.29784 | -16.36186 | 40950 ft | 532 kts | 112° |
| 2026-05-07 11:43 | 55.27207 | -16.24037 | 40937 ft | 531 kts | 112° |
| 2026-05-07 11:44 | 55.24615 | -16.11887 | 40938 ft | 532 kts | 112° |
| 2026-05-07 11:44 | 55.22015 | -15.99779 | 40935 ft | 530 kts | 112° |
| 2026-05-07 11:45 | 55.19412 | -15.87721 | 40932 ft | 529 kts | 112° |
| 2026-05-07 11:45 | 55.16798 | -15.75690 | 40928 ft | 529 kts | 112° |
| 2026-05-07 11:46 | 55.14173 | -15.63674 | 40925 ft | 529 kts | 112° |
| 2026-05-07 11:46 | 55.11536 | -15.51674 | 40919 ft | 529 kts | 113° |
| 2026-05-07 11:47 | 55.08890 | -15.39705 | 40926 ft | 528 kts | 113° |
| 2026-05-07 11:47 | 55.06238 | -15.27771 | 40925 ft | 527 kts | 113° |
| 2026-05-07 11:48 | 55.03588 | -15.15923 | 40919 ft | 527 kts | 113° |
| 2026-05-07 11:48 | 55.01027 | -15.03951 | 40920 ft | 529 kts | 107° |
| 2026-05-07 11:49 | 55.00039 | -14.91258 | 40910 ft | 531 kts | 92° |
| 2026-05-07 11:49 | 54.99982 | -14.78365 | 40910 ft | 532 kts | 90° |
| 2026-05-07 11:50 | 55.00057 | -14.65481 | 40906 ft | 532 kts | 90° |
| 2026-05-07 11:50 | 55.00106 | -14.52610 | 40903 ft | 531 kts | 91° |
| 2026-05-07 11:51 | 55.00112 | -14.39735 | 40903 ft | 531 kts | 91° |
| 2026-05-07 11:51 | 55.00094 | -14.26862 | 40892 ft | 531 kts | 91° |
| 2026-05-07 11:52 | 55.00061 | -14.14002 | 40895 ft | 531 kts | 91° |
| 2026-05-07 11:52 | 54.99875 | -14.01161 | 40893 ft | 530 kts | 98° |
| 2026-05-07 11:53 | 54.98534 | -13.88588 | 40880 ft | 528 kts | 104° |
| 2026-05-07 11:53 | 54.96889 | -13.76139 | 40891 ft | 527 kts | 105° |
| 2026-05-07 11:54 | 54.95188 | -13.63739 | 40891 ft | 526 kts | 105° |
| 2026-05-07 11:54 | 54.93491 | -13.51360 | 40881 ft | 526 kts | 105° |
| 2026-05-07 11:55 | 54.91796 | -13.38994 | 40884 ft | 526 kts | 105° |
| 2026-05-07 11:55 | 54.90093 | -13.26634 | 40883 ft | 526 kts | 105° |
| 2026-05-07 11:56 | 54.88389 | -13.14366 | 40874 ft | 526 kts | 105° |
| 2026-05-07 11:56 | 54.86663 | -13.02049 | 40884 ft | 524 kts | 105° |
| 2026-05-07 11:57 | 54.84926 | -12.89757 | 40881 ft | 524 kts | 105° |
| 2026-05-07 11:57 | 54.83178 | -12.77484 | 40879 ft | 524 kts | 105° |
| 2026-05-07 11:58 | 54.81417 | -12.65218 | 40876 ft | 524 kts | 105° |
| 2026-05-07 11:58 | 54.79644 | -12.52959 | 40874 ft | 524 kts | 106° |
| 2026-05-07 11:59 | 54.77858 | -12.40711 | 40876 ft | 525 kts | 106° |
| 2026-05-07 11:59 | 54.76058 | -12.28462 | 40877 ft | 525 kts | 106° |
| 2026-05-07 12:00 | 54.74246 | -12.16227 | 40888 ft | 525 kts | 106° |
| 2026-05-07 12:00 | 54.72423 | -12.04008 | 40888 ft | 525 kts | 106° |
| 2026-05-07 12:01 | 54.70585 | -11.91786 | 40889 ft | 525 kts | 107° |
| 2026-05-07 12:01 | 54.68737 | -11.79584 | 40880 ft | 524 kts | 107° |
| 2026-05-07 12:02 | 54.66879 | -11.67415 | 40885 ft | 524 kts | 107° |
| 2026-05-07 12:02 | 54.65008 | -11.55248 | 40886 ft | 524 kts | 107° |
| 2026-05-07 12:03 | 54.63127 | -11.43108 | 40884 ft | 524 kts | 107° |
| 2026-05-07 12:03 | 54.61232 | -11.30972 | 40892 ft | 524 kts | 107° |
| 2026-05-07 12:04 | 54.59338 | -11.18926 | 40896 ft | 524 kts | 107° |
| 2026-05-07 12:04 | 54.57421 | -11.06819 | 40895 ft | 524 kts | 107° |
| 2026-05-07 12:05 | 54.55492 | -10.94725 | 40893 ft | 523 kts | 107° |
| 2026-05-07 12:05 | 54.53550 | -10.82640 | 40894 ft | 523 kts | 107° |
| 2026-05-07 12:06 | 54.51599 | -10.70579 | 40891 ft | 522 kts | 108° |
| 2026-05-07 12:06 | 54.49639 | -10.58556 | 40898 ft | 521 kts | 108° |
| 2026-05-07 12:07 | 54.47670 | -10.46561 | 40903 ft | 521 kts | 108° |
| 2026-05-07 12:07 | 54.45690 | -10.34580 | 40903 ft | 521 kts | 108° |
| 2026-05-07 12:08 | 54.43697 | -10.22601 | 40903 ft | 521 kts | 108° |
| 2026-05-07 12:08 | 54.41695 | -10.10655 | 40908 ft | 520 kts | 108° |
| 2026-05-07 12:09 | 54.39686 | -9.98745 | 40910 ft | 519 kts | 108° |
| 2026-05-07 12:09 | 54.37667 | -9.86856 | 40911 ft | 519 kts | 108° |
| 2026-05-07 12:10 | 54.35636 | -9.74984 | 40892 ft | 519 kts | 108° |
| 2026-05-07 12:10 | 54.33599 | -9.63147 | 40908 ft | 517 kts | 109° |
| 2026-05-07 12:11 | 54.31558 | -9.51368 | 40900 ft | 514 kts | 109° |
| 2026-05-07 12:11 | 54.29512 | -9.39641 | 40899 ft | 514 kts | 109° |
| 2026-05-07 12:12 | 54.27805 | -9.29914 | 40896 ft | 514 kts | 109° |
| 2026-05-07 12:12 | 54.25737 | -9.18205 | 40895 ft | 514 kts | 109° |
| 2026-05-07 12:13 | 54.23661 | -9.06523 | 40898 ft | 514 kts | 109° |
| 2026-05-07 12:13 | 54.21575 | -8.94857 | 40902 ft | 513 kts | 109° |
| 2026-05-07 12:14 | 54.19481 | -8.83220 | 40907 ft | 513 kts | 109° |
| 2026-05-07 12:14 | 54.17374 | -8.71592 | 40902 ft | 512 kts | 109° |
| 2026-05-07 12:15 | 54.15260 | -8.59996 | 40908 ft | 512 kts | 109° |
| 2026-05-07 12:15 | 54.13136 | -8.48413 | 40901 ft | 512 kts | 109° |
| 2026-05-07 12:16 | 54.11000 | -8.36844 | 40901 ft | 511 kts | 109° |
| 2026-05-07 12:16 | 54.08854 | -8.25286 | 40906 ft | 511 kts | 109° |
| 2026-05-07 12:17 | 54.06698 | -8.13746 | 40907 ft | 511 kts | 109° |
| 2026-05-07 12:17 | 54.04527 | -8.02204 | 40911 ft | 511 kts | 109° |
| 2026-05-07 12:18 | 54.02362 | -7.90758 | 40902 ft | 511 kts | 110° |
| 2026-05-07 12:18 | 54.00170 | -7.79246 | 40921 ft | 511 kts | 110° |
| 2026-05-07 12:19 | 53.97972 | -7.67766 | 40911 ft | 511 kts | 110° |
| 2026-05-07 12:19 | 53.95764 | -7.56304 | 40922 ft | 511 kts | 110° |
| 2026-05-07 12:20 | 53.93544 | -7.44846 | 40923 ft | 511 kts | 110° |
| 2026-05-07 12:20 | 53.91313 | -7.33400 | 40926 ft | 510 kts | 110° |
| 2026-05-07 12:21 | 53.89073 | -7.21980 | 40926 ft | 510 kts | 110° |
| 2026-05-07 12:21 | 53.86823 | -7.10578 | 40942 ft | 510 kts | 110° |
| 2026-05-07 12:22 | 53.84577 | -6.99259 | 40941 ft | 510 kts | 110° |
| 2026-05-07 12:22 | 53.82307 | -6.87886 | 40949 ft | 510 kts | 110° |
| 2026-05-07 12:23 | 53.80028 | -6.76533 | 40936 ft | 509 kts | 110° |
| 2026-05-07 12:23 | 53.77741 | -6.65205 | 40952 ft | 509 kts | 110° |
| 2026-05-07 12:24 | 53.75446 | -6.53902 | 40951 ft | 508 kts | 110° |
| 2026-05-07 12:24 | 53.73142 | -6.42622 | 40956 ft | 508 kts | 111° |
| 2026-05-07 12:25 | 53.70825 | -6.31340 | 40956 ft | 508 kts | 111° |
| 2026-05-07 12:25 | 53.68501 | -6.20091 | 40962 ft | 508 kts | 111° |
| 2026-05-07 12:26 | 53.66164 | -6.08840 | 40964 ft | 508 kts | 111° |
| 2026-05-07 12:26 | 53.63819 | -5.97619 | 40977 ft | 507 kts | 111° |
| 2026-05-07 12:27 | 53.61466 | -5.86417 | 40975 ft | 507 kts | 111° |
| 2026-05-07 12:27 | 53.59101 | -5.75219 | 40979 ft | 507 kts | 111° |
| 2026-05-07 12:28 | 53.56728 | -5.64047 | 40986 ft | 507 kts | 111° |
| 2026-05-07 12:28 | 53.54448 | -5.52829 | 40993 ft | 508 kts | 106° |
| 2026-05-07 12:29 | 53.53495 | -5.41033 | 40992 ft | 511 kts | 95° |
| 2026-05-07 12:29 | 53.53146 | -5.29114 | 40992 ft | 511 kts | 94° |
| 2026-05-07 12:30 | 53.52883 | -5.17210 | 40918 ft | 501 kts | 93° |
| 2026-05-07 12:30 | 53.52746 | -5.11412 | 40538 ft | 493 kts | 94° |
| 2026-05-07 12:30 | 53.52585 | -5.05671 | 39857 ft | 492 kts | 94° |
| 2026-05-07 12:30 | 53.52403 | -4.99891 | 39000 ft | 496 kts | 95° |
| 2026-05-07 12:31 | 53.52211 | -4.94100 | 38009 ft | 498 kts | 95° |
| 2026-05-07 12:31 | 53.52018 | -4.88367 | 37019 ft | 496 kts | 95° |
| 2026-05-07 12:31 | 53.51825 | -4.82596 | 36056 ft | 493 kts | 95° |
| 2026-05-07 12:31 | 53.51635 | -4.76864 | 35094 ft | 489 kts | 96° |
| 2026-05-07 12:32 | 53.51444 | -4.71186 | 34179 ft | 484 kts | 96° |
| 2026-05-07 12:32 | 53.51252 | -4.65566 | 33161 ft | 481 kts | 96° |
| 2026-05-07 12:32 | 53.51056 | -4.59968 | 32102 ft | 479 kts | 96° |
| 2026-05-07 12:32 | 53.50859 | -4.54403 | 31129 ft | 477 kts | 96° |
| 2026-05-07 12:33 | 53.50459 | -4.43296 | 29101 ft | 475 kts | 96° |
| 2026-05-07 12:33 | 53.50257 | -4.37768 | 28049 ft | 474 kts | 96° |
| 2026-05-07 12:33 | 53.50054 | -4.32255 | 27027 ft | 472 kts | 96° |
| 2026-05-07 12:34 | 53.49848 | -4.26760 | 26057 ft | 470 kts | 96° |
| 2026-05-07 12:34 | 53.49642 | -4.21292 | 25112 ft | 468 kts | 96° |
| 2026-05-07 12:34 | 53.49434 | -4.15858 | 24184 ft | 466 kts | 96° |
| 2026-05-07 12:34 | 53.49224 | -4.10446 | 23252 ft | 463 kts | 96° |
| 2026-05-07 12:35 | 53.49014 | -4.05097 | 22431 ft | 455 kts | 96° |
| 2026-05-07 12:35 | 53.48796 | -3.99861 | 21765 ft | 444 kts | 97° |
| 2026-05-07 12:35 | 53.48230 | -3.94831 | 20990 ft | 435 kts | 108° |
| 2026-05-07 12:35 | 53.47346 | -3.90021 | 20227 ft | 428 kts | 110° |
| 2026-05-07 12:36 | 53.46405 | -3.85326 | 19502 ft | 422 kts | 110° |
| 2026-05-07 12:36 | 53.45460 | -3.80701 | 18775 ft | 417 kts | 111° |
| 2026-05-07 12:36 | 53.44519 | -3.76134 | 18020 ft | 412 kts | 111° |
| 2026-05-07 12:36 | 53.43585 | -3.71623 | 17223 ft | 407 kts | 111° |
| 2026-05-07 12:37 | 53.42659 | -3.67167 | 16434 ft | 402 kts | 111° |
| 2026-05-07 12:37 | 53.41763 | -3.62755 | 15661 ft | 398 kts | 109° |
| 2026-05-07 12:37 | 53.41226 | -3.58228 | 14896 ft | 396 kts | 98° |
| 2026-05-07 12:37 | 53.40991 | -3.53661 | 14175 ft | 391 kts | 96° |
| 2026-05-07 12:38 | 53.40804 | -3.49134 | 13410 ft | 387 kts | 96° |
| 2026-05-07 12:38 | 53.40618 | -3.44675 | 12625 ft | 381 kts | 97° |
| 2026-05-07 12:38 | 53.40427 | -3.40268 | 11845 ft | 376 kts | 97° |
| 2026-05-07 12:38 | 53.40235 | -3.35926 | 11089 ft | 371 kts | 97° |
| 2026-05-07 12:39 | 53.40042 | -3.31640 | 10349 ft | 366 kts | 97° |
| 2026-05-07 12:39 | 53.39850 | -3.27423 | 9591 ft | 361 kts | 97° |
| 2026-05-07 12:39 | 53.39660 | -3.23313 | 8803 ft | 356 kts | 97° |
| 2026-05-07 12:39 | 53.39470 | -3.19216 | 8013 ft | 351 kts | 97° |
| 2026-05-07 12:40 | 53.39352 | -3.15167 | 7390 ft | 345 kts | 90° |
| 2026-05-07 12:40 | 53.39944 | -3.11367 | 7110 ft | 333 kts | 66° |
| 2026-05-07 12:40 | 53.41048 | -3.08003 | 7037 ft | 328 kts | 61° |
| 2026-05-07 12:40 | 53.42214 | -3.04691 | 7045 ft | 331 kts | 61° |
| 2026-05-07 12:41 | 53.43384 | -3.01360 | 7044 ft | 331 kts | 61° |
| 2026-05-07 12:41 | 53.44548 | -2.98023 | 7043 ft | 331 kts | 61° |
| 2026-05-07 12:41 | 53.45707 | -2.94684 | 7043 ft | 331 kts | 62° |
| 2026-05-07 12:41 | 53.46861 | -2.91349 | 7045 ft | 326 kts | 62° |
| 2026-05-07 12:42 | 53.47960 | -2.88174 | 7054 ft | 303 kts | 62° |
| 2026-05-07 12:42 | 53.48984 | -2.85212 | 7058 ft | 288 kts | 62° |
| 2026-05-07 12:42 | 53.49985 | -2.82303 | 7049 ft | 288 kts | 62° |
| 2026-05-07 12:42 | 53.50986 | -2.79386 | 7036 ft | 288 kts | 62° |
| 2026-05-07 12:43 | 53.51987 | -2.76468 | 7030 ft | 288 kts | 62° |
| 2026-05-07 12:43 | 53.52989 | -2.73545 | 7029 ft | 289 kts | 62° |
| 2026-05-07 12:43 | 53.53993 | -2.70616 | 7030 ft | 288 kts | 62° |
| 2026-05-07 12:43 | 53.54996 | -2.67698 | 7034 ft | 289 kts | 62° |
| 2026-05-07 12:44 | 53.56015 | -2.64738 | 7034 ft | 303 kts | 62° |
| 2026-05-07 12:44 | 53.57120 | -2.61497 | 7016 ft | 333 kts | 62° |
| 2026-05-07 12:44 | 53.58296 | -2.58042 | 7015 ft | 342 kts | 61° |
| 2026-05-07 12:44 | 53.59463 | -2.54551 | 7032 ft | 342 kts | 62° |
| 2026-05-07 12:45 | 53.60612 | -2.51106 | 7036 ft | 342 kts | 62° |
| 2026-05-07 12:45 | 53.61776 | -2.47620 | 7034 ft | 340 kts | 62° |
| 2026-05-07 12:45 | 53.62898 | -2.44255 | 6907 ft | 320 kts | 62° |
| 2026-05-07 12:45 | 53.63823 | -2.40933 | 6546 ft | 308 kts | 73° |
| 2026-05-07 12:46 | 53.64298 | -2.37454 | 5954 ft | 304 kts | 82° |
| 2026-05-07 12:46 | 53.64646 | -2.33944 | 5340 ft | 303 kts | 83° |
| 2026-05-07 12:46 | 53.64933 | -2.30463 | 4899 ft | 295 kts | 89° |
| 2026-05-07 12:46 | 53.64850 | -2.27075 | 4480 ft | 286 kts | 99° |
| 2026-05-07 12:47 | 53.64630 | -2.23783 | 4075 ft | 279 kts | 99° |
| 2026-05-07 12:47 | 53.64403 | -2.20575 | 3669 ft | 273 kts | 100° |
| 2026-05-07 12:47 | 53.64199 | -2.17467 | 3502 ft | 260 kts | 100° |
| 2026-05-07 12:47 | 53.63879 | -2.14547 | 3483 ft | 250 kts | 112° |
| 2026-05-07 12:48 | 53.63198 | -2.11869 | 3485 ft | 252 kts | 119° |
| 2026-05-07 12:48 | 53.62377 | -2.09077 | 3473 ft | 278 kts | 120° |
| 2026-05-07 12:48 | 53.61493 | -2.06114 | 3467 ft | 285 kts | 119° |
| 2026-05-07 12:48 | 53.60511 | -2.03217 | 3473 ft | 284 kts | 128° |
| 2026-05-07 12:49 | 53.59136 | -2.00879 | 3485 ft | 280 kts | 147° |
| 2026-05-07 12:49 | 53.57359 | -1.99702 | 3487 ft | 274 kts | 173° |
| 2026-05-07 12:49 | 53.55516 | -1.99575 | 3484 ft | 253 kts | 181° |
| 2026-05-07 12:49 | 53.53831 | -1.99647 | 3498 ft | 232 kts | 182° |
| 2026-05-07 12:50 | 53.52287 | -1.99722 | 3484 ft | 210 kts | 181° |
| 2026-05-07 12:50 | 53.50888 | -1.99774 | 3505 ft | 194 kts | 182° |
| 2026-05-07 12:50 | 53.49591 | -1.99848 | 3495 ft | 180 kts | 184° |
| 2026-05-07 12:50 | 53.48440 | -2.00479 | 3500 ft | 174 kts | 214° |
| 2026-05-07 12:51 | 53.47612 | -2.01966 | 3519 ft | 176 kts | 232° |
| 2026-05-07 12:51 | 53.46908 | -2.03633 | 3499 ft | 174 kts | 230° |
| 2026-05-07 12:51 | 53.46157 | -2.05258 | 3449 ft | 178 kts | 229° |
| 2026-05-07 12:51 | 53.45377 | -2.06863 | 3228 ft | 176 kts | 227° |
| 2026-05-07 12:52 | 53.44612 | -2.08443 | 2975 ft | 174 kts | 228° |
| 2026-05-07 12:52 | 53.43847 | -2.10030 | 2735 ft | 175 kts | 228° |
| 2026-05-07 12:52 | 53.43087 | -2.11603 | 2495 ft | 177 kts | 227° |
| 2026-05-07 12:52 | 53.42312 | -2.13203 | 2259 ft | 175 kts | 227° |
| 2026-05-07 12:53 | 53.41545 | -2.14788 | 2014 ft | 175 kts | 227° |
| 2026-05-07 12:53 | 53.40775 | -2.16376 | 1774 ft | 176 kts | 226° |
| 2026-05-07 12:53 | 53.40004 | -2.17964 | 1515 ft | 175 kts | 227° |
| 2026-05-07 12:53 | 53.39239 | -2.19544 | 1300 ft | 174 kts | 227° |
| 2026-05-07 12:54 | 53.38471 | -2.21138 | 967 ft | 178 kts | 226° |
| 2026-05-07 12:54 | 53.37683 | -2.22718 | 750 ft | 178 kts | 231° |
| 2026-05-07 12:54 | 53.36967 | -2.24241 | 590 ft | 163 kts | 230° |
| 2026-05-07 12:54 | 53.36267 | -2.25667 | 375 ft | 149 kts | 227° |
| 2026-05-07 12:55 | 53.35652 | -2.26920 | 268 ft | 126 kts | 231° |
| 2026-05-07 12:55 | 53.35281 | -2.27714 | 245 ft | 37 kts | 250° |
| 2026-05-07 12:55 | 53.35234 | -2.28095 | 237 ft | 19 kts | 264° |
| 2026-05-07 12:55 | 53.35299 | -2.28187 | 239 ft | 14 kts | 37° |
| 2026-05-07 12:56 | 53.35407 | -2.28000 | 243 ft | 33 kts | 43° |
| 2026-05-07 12:56 | 53.35624 | -2.27894 | 247 ft | 34 kts | 6° |
| 2026-05-07 12:56 | 53.35848 | -2.27848 | 259 ft | 28 kts | 11° |
| 2026-05-07 12:56 | 53.35929 | -2.27907 | 262 ft | 12 kts | 288° |
| 2026-05-07 12:57 | 53.35928 | -2.27976 | 261 ft | 0 kts | 261° |